sensor_id;sensor_type;location;lat;lon;timestamp;temperature;humidity
12307;DHT22;6216;51.146;7.008;2022-07-06T00:00:19;19.40;99.90
12307;DHT22;6216;51.146;7.008;2022-07-06T00:02:47;19.40;99.90
12307;DHT22;6216;51.146;7.008;2022-07-06T00:05:15;19.30;99.90
12307;DHT22;6216;51.146;7.008;2022-07-06T00:07:44;19.30;99.70
12307;DHT22;6216;51.146;7.008;2022-07-06T00:10:12;19.20;99.90
12307;DHT22;6216;51.146;7.008;2022-07-06T00:12:40;19.20;99.70
12307;DHT22;6216;51.146;7.008;2022-07-06T00:15:08;19.20;99.90
12307;DHT22;6216;51.146;7.008;2022-07-06T00:17:39;19.10;99.90
12307;DHT22;6216;51.146;7.008;2022-07-06T00:20:10;19.10;99.90
12307;DHT22;6216;51.146;7.008;2022-07-06T00:22:38;19.10;99.90
12307;DHT22;6216;51.146;7.008;2022-07-06T00:25:08;19.00;99.90
12307;DHT22;6216;51.146;7.008;2022-07-06T00:27:36;19.00;99.90
12307;DHT22;6216;51.146;7.008;2022-07-06T00:30:07;19.00;99.90
12307;DHT22;6216;51.146;7.008;2022-07-06T00:32:36;18.90;99.90
12307;DHT22;6216;51.146;7.008;2022-07-06T00:35:05;18.90;99.90
12307;DHT22;6216;51.146;7.008;2022-07-06T00:37:33;18.90;99.90
12307;DHT22;6216;51.146;7.008;2022-07-06T00:40:04;18.80;99.90
12307;DHT22;6216;51.146;7.008;2022-07-06T00:42:40;18.80;99.90
12307;DHT22;6216;51.146;7.008;2022-07-06T00:45:14;18.70;99.90
12307;DHT22;6216;51.146;7.008;2022-07-06T00:47:42;18.70;99.90
12307;DHT22;6216;51.146;7.008;2022-07-06T00:50:12;18.70;99.90
12307;DHT22;6216;51.146;7.008;2022-07-06T00:52:49;18.70;99.90
12307;DHT22;6216;51.146;7.008;2022-07-06T00:55:19;18.70;99.90
12307;DHT22;6216;51.146;7.008;2022-07-06T00:57:48;18.60;99.90
12307;DHT22;6216;51.146;7.008;2022-07-06T01:00:18;18.60;99.90
12307;DHT22;6216;51.146;7.008;2022-07-06T01:02:48;18.50;99.90
12307;DHT22;6216;51.146;7.008;2022-07-06T01:05:20;18.50;99.90
12307;DHT22;6216;51.146;7.008;2022-07-06T01:07:53;18.40;99.90
12307;DHT22;6216;51.146;7.008;2022-07-06T01:10:23;18.40;99.90
12307;DHT22;6216;51.146;7.008;2022-07-06T01:12:52;18.40;99.90
12307;DHT22;6216;51.146;7.008;2022-07-06T01:15:24;18.40;99.90
12307;DHT22;6216;51.146;7.008;2022-07-06T01:17:52;18.30;99.90
12307;DHT22;6216;51.146;7.008;2022-07-06T01:20:23;18.20;99.90
12307;DHT22;6216;51.146;7.008;2022-07-06T01:22:53;18.20;99.90
12307;DHT22;6216;51.146;7.008;2022-07-06T01:25:21;18.20;99.90
12307;DHT22;6216;51.146;7.008;2022-07-06T01:27:49;18.10;99.90
12307;DHT22;6216;51.146;7.008;2022-07-06T01:30:18;18.10;99.90
12307;DHT22;6216;51.146;7.008;2022-07-06T01:32:47;18.10;99.90
12307;DHT22;6216;51.146;7.008;2022-07-06T01:35:15;18.10;99.90
12307;DHT22;6216;51.146;7.008;2022-07-06T01:37:45;18.10;99.90
12307;DHT22;6216;51.146;7.008;2022-07-06T01:40:12;18.00;99.90
12307;DHT22;6216;51.146;7.008;2022-07-06T01:42:41;18.00;99.90
12307;DHT22;6216;51.146;7.008;2022-07-06T01:45:09;18.00;99.90
12307;DHT22;6216;51.146;7.008;2022-07-06T01:47:38;18.00;99.90
12307;DHT22;6216;51.146;7.008;2022-07-06T01:50:07;17.90;99.90
12307;DHT22;6216;51.146;7.008;2022-07-06T01:52:36;17.90;99.90
12307;DHT22;6216;51.146;7.008;2022-07-06T01:55:06;17.90;99.90
12307;DHT22;6216;51.146;7.008;2022-07-06T01:57:34;17.80;99.90
12307;DHT22;6216;51.146;7.008;2022-07-06T02:00:04;17.80;99.90
12307;DHT22;6216;51.146;7.008;2022-07-06T02:02:32;17.70;99.90
12307;DHT22;6216;51.146;7.008;2022-07-06T02:05:00;17.70;99.90
12307;DHT22;6216;51.146;7.008;2022-07-06T02:07:27;17.60;99.90
12307;DHT22;6216;51.146;7.008;2022-07-06T02:09:55;17.60;99.90
12307;DHT22;6216;51.146;7.008;2022-07-06T02:12:24;17.50;99.90
12307;DHT22;6216;51.146;7.008;2022-07-06T02:14:52;17.50;99.90
12307;DHT22;6216;51.146;7.008;2022-07-06T02:17:20;17.50;99.90
12307;DHT22;6216;51.146;7.008;2022-07-06T02:19:48;17.50;99.90
12307;DHT22;6216;51.146;7.008;2022-07-06T02:22:16;17.50;99.90
12307;DHT22;6216;51.146;7.008;2022-07-06T02:24:44;17.50;99.90
12307;DHT22;6216;51.146;7.008;2022-07-06T02:27:11;17.50;99.90
12307;DHT22;6216;51.146;7.008;2022-07-06T02:29:41;17.40;99.90
12307;DHT22;6216;51.146;7.008;2022-07-06T02:32:08;17.40;99.90
12307;DHT22;6216;51.146;7.008;2022-07-06T02:34:36;17.40;99.90
12307;DHT22;6216;51.146;7.008;2022-07-06T02:37:04;17.40;99.90
12307;DHT22;6216;51.146;7.008;2022-07-06T02:39:32;17.40;99.90
12307;DHT22;6216;51.146;7.008;2022-07-06T02:42:00;17.30;99.90
12307;DHT22;6216;51.146;7.008;2022-07-06T02:44:28;17.30;99.90
12307;DHT22;6216;51.146;7.008;2022-07-06T02:46:57;17.30;99.90
12307;DHT22;6216;51.146;7.008;2022-07-06T02:49:25;17.20;99.90
12307;DHT22;6216;51.146;7.008;2022-07-06T02:51:53;17.10;99.90
12307;DHT22;6216;51.146;7.008;2022-07-06T02:54:20;17.10;99.90
12307;DHT22;6216;51.146;7.008;2022-07-06T02:56:48;17.10;99.90
12307;DHT22;6216;51.146;7.008;2022-07-06T02:59:19;17.10;99.90
12307;DHT22;6216;51.146;7.008;2022-07-06T03:01:47;17.10;99.90
12307;DHT22;6216;51.146;7.008;2022-07-06T03:04:16;17.10;99.90
12307;DHT22;6216;51.146;7.008;2022-07-06T03:06:44;17.00;99.90
12307;DHT22;6216;51.146;7.008;2022-07-06T03:09:12;16.90;99.90
12307;DHT22;6216;51.146;7.008;2022-07-06T03:11:40;16.90;99.90
12307;DHT22;6216;51.146;7.008;2022-07-06T03:14:08;16.80;99.90
12307;DHT22;6216;51.146;7.008;2022-07-06T03:16:35;16.80;99.90
12307;DHT22;6216;51.146;7.008;2022-07-06T03:19:03;16.80;99.90
12307;DHT22;6216;51.146;7.008;2022-07-06T03:21:33;16.90;99.90
12307;DHT22;6216;51.146;7.008;2022-07-06T03:24:01;16.90;99.90
12307;DHT22;6216;51.146;7.008;2022-07-06T03:26:29;16.90;99.90
12307;DHT22;6216;51.146;7.008;2022-07-06T03:28:56;16.90;99.90
12307;DHT22;6216;51.146;7.008;2022-07-06T03:31:24;16.80;99.90
12307;DHT22;6216;51.146;7.008;2022-07-06T03:33:52;16.80;99.90
12307;DHT22;6216;51.146;7.008;2022-07-06T03:36:20;16.70;99.90
12307;DHT22;6216;51.146;7.008;2022-07-06T03:38:49;16.70;99.90
12307;DHT22;6216;51.146;7.008;2022-07-06T03:41:17;16.70;99.90
12307;DHT22;6216;51.146;7.008;2022-07-06T03:43:45;16.70;99.90
12307;DHT22;6216;51.146;7.008;2022-07-06T03:46:13;16.70;99.90
12307;DHT22;6216;51.146;7.008;2022-07-06T03:48:41;16.70;99.90
12307;DHT22;6216;51.146;7.008;2022-07-06T03:51:09;16.80;99.90
12307;DHT22;6216;51.146;7.008;2022-07-06T03:53:37;16.70;99.90
12307;DHT22;6216;51.146;7.008;2022-07-06T03:56:07;16.80;99.90
12307;DHT22;6216;51.146;7.008;2022-07-06T03:58:56;16.80;99.90
12307;DHT22;6216;51.146;7.008;2022-07-06T04:01:24;16.80;99.90
12307;DHT22;6216;51.146;7.008;2022-07-06T04:03:53;16.80;99.90
12307;DHT22;6216;51.146;7.008;2022-07-06T04:06:21;16.80;99.90
12307;DHT22;6216;51.146;7.008;2022-07-06T04:08:49;16.80;99.90
12307;DHT22;6216;51.146;7.008;2022-07-06T04:11:19;16.80;99.90
12307;DHT22;6216;51.146;7.008;2022-07-06T04:13:46;16.90;99.90
12307;DHT22;6216;51.146;7.008;2022-07-06T04:16:14;16.90;99.90
12307;DHT22;6216;51.146;7.008;2022-07-06T04:18:42;16.80;99.90
12307;DHT22;6216;51.146;7.008;2022-07-06T04:21:10;16.80;99.90
12307;DHT22;6216;51.146;7.008;2022-07-06T04:23:38;16.80;99.90
12307;DHT22;6216;51.146;7.008;2022-07-06T04:26:06;16.80;99.90
12307;DHT22;6216;51.146;7.008;2022-07-06T04:28:35;16.80;99.90
12307;DHT22;6216;51.146;7.008;2022-07-06T04:31:03;16.80;99.90
12307;DHT22;6216;51.146;7.008;2022-07-06T04:33:31;16.80;99.90
12307;DHT22;6216;51.146;7.008;2022-07-06T04:35:59;16.80;99.90
12307;DHT22;6216;51.146;7.008;2022-07-06T04:38:27;16.80;99.90
12307;DHT22;6216;51.146;7.008;2022-07-06T04:40:54;16.80;99.90
12307;DHT22;6216;51.146;7.008;2022-07-06T04:43:22;16.80;99.90
12307;DHT22;6216;51.146;7.008;2022-07-06T04:45:51;16.80;99.90
12307;DHT22;6216;51.146;7.008;2022-07-06T04:48:19;16.80;99.90
12307;DHT22;6216;51.146;7.008;2022-07-06T04:50:47;16.80;99.90
12307;DHT22;6216;51.146;7.008;2022-07-06T04:53:15;16.80;99.90
12307;DHT22;6216;51.146;7.008;2022-07-06T04:55:43;16.80;99.90
12307;DHT22;6216;51.146;7.008;2022-07-06T04:58:11;16.80;99.90
12307;DHT22;6216;51.146;7.008;2022-07-06T05:00:39;16.90;99.90
12307;DHT22;6216;51.146;7.008;2022-07-06T05:03:08;16.90;99.90
12307;DHT22;6216;51.146;7.008;2022-07-06T05:05:36;16.90;99.90
12307;DHT22;6216;51.146;7.008;2022-07-06T05:08:04;17.00;99.90
12307;DHT22;6216;51.146;7.008;2022-07-06T05:10:32;17.00;99.90
12307;DHT22;6216;51.146;7.008;2022-07-06T05:13:00;17.00;99.90
12307;DHT22;6216;51.146;7.008;2022-07-06T05:15:27;17.10;99.90
12307;DHT22;6216;51.146;7.008;2022-07-06T05:17:56;17.10;99.90
12307;DHT22;6216;51.146;7.008;2022-07-06T05:20:26;17.10;99.90
12307;DHT22;6216;51.146;7.008;2022-07-06T05:22:53;17.20;99.90
12307;DHT22;6216;51.146;7.008;2022-07-06T05:25:21;17.20;99.90
12307;DHT22;6216;51.146;7.008;2022-07-06T05:27:49;17.20;99.90
12307;DHT22;6216;51.146;7.008;2022-07-06T05:30:19;17.30;99.90
12307;DHT22;6216;51.146;7.008;2022-07-06T05:32:47;17.30;99.90
12307;DHT22;6216;51.146;7.008;2022-07-06T05:35:15;17.30;99.90
12307;DHT22;6216;51.146;7.008;2022-07-06T05:38:04;17.30;99.90
12307;DHT22;6216;51.146;7.008;2022-07-06T05:40:32;17.30;99.90
12307;DHT22;6216;51.146;7.008;2022-07-06T05:43:00;17.40;99.90
12307;DHT22;6216;51.146;7.008;2022-07-06T05:45:28;17.40;99.90
12307;DHT22;6216;51.146;7.008;2022-07-06T05:47:56;17.40;99.90
12307;DHT22;6216;51.146;7.008;2022-07-06T05:50:42;17.50;99.90
12307;DHT22;6216;51.146;7.008;2022-07-06T05:53:11;17.50;99.90
12307;DHT22;6216;51.146;7.008;2022-07-06T05:55:45;17.50;99.90
12307;DHT22;6216;51.146;7.008;2022-07-06T05:58:13;17.50;99.90
12307;DHT22;6216;51.146;7.008;2022-07-06T06:00:41;17.60;99.90
12307;DHT22;6216;51.146;7.008;2022-07-06T06:03:09;17.60;99.90
12307;DHT22;6216;51.146;7.008;2022-07-06T06:05:37;17.70;99.90
12307;DHT22;6216;51.146;7.008;2022-07-06T06:08:05;17.70;99.90
12307;DHT22;6216;51.146;7.008;2022-07-06T06:10:34;17.70;99.90
12307;DHT22;6216;51.146;7.008;2022-07-06T06:13:02;17.70;99.90
12307;DHT22;6216;51.146;7.008;2022-07-06T06:15:30;17.80;99.90
12307;DHT22;6216;51.146;7.008;2022-07-06T06:17:58;17.80;99.90
12307;DHT22;6216;51.146;7.008;2022-07-06T06:20:26;17.80;99.90
12307;DHT22;6216;51.146;7.008;2022-07-06T06:22:56;17.80;99.90
12307;DHT22;6216;51.146;7.008;2022-07-06T06:25:28;17.80;99.90
12307;DHT22;6216;51.146;7.008;2022-07-06T06:27:58;17.80;99.90
12307;DHT22;6216;51.146;7.008;2022-07-06T06:30:26;17.80;99.90
12307;DHT22;6216;51.146;7.008;2022-07-06T06:33:08;17.90;99.90
12307;DHT22;6216;51.146;7.008;2022-07-06T06:35:37;17.90;99.90
12307;DHT22;6216;51.146;7.008;2022-07-06T06:38:05;17.90;99.90
12307;DHT22;6216;51.146;7.008;2022-07-06T06:40:34;18.00;99.90
12307;DHT22;6216;51.146;7.008;2022-07-06T06:43:03;18.00;99.90
12307;DHT22;6216;51.146;7.008;2022-07-06T06:45:31;18.10;99.90
12307;DHT22;6216;51.146;7.008;2022-07-06T06:47:59;18.20;99.90
12307;DHT22;6216;51.146;7.008;2022-07-06T06:50:27;18.20;99.90
12307;DHT22;6216;51.146;7.008;2022-07-06T06:52:55;18.10;99.90
12307;DHT22;6216;51.146;7.008;2022-07-06T06:55:23;18.20;99.90
12307;DHT22;6216;51.146;7.008;2022-07-06T06:57:51;18.10;99.90
12307;DHT22;6216;51.146;7.008;2022-07-06T07:00:20;18.20;99.90
12307;DHT22;6216;51.146;7.008;2022-07-06T07:02:48;18.30;99.90
12307;DHT22;6216;51.146;7.008;2022-07-06T07:05:16;18.40;99.90
12307;DHT22;6216;51.146;7.008;2022-07-06T07:07:44;18.40;99.90
12307;DHT22;6216;51.146;7.008;2022-07-06T07:10:11;18.50;99.90
12307;DHT22;6216;51.146;7.008;2022-07-06T07:12:43;18.50;99.90
12307;DHT22;6216;51.146;7.008;2022-07-06T07:15:11;18.60;99.90
12307;DHT22;6216;51.146;7.008;2022-07-06T07:17:41;18.60;99.90
12307;DHT22;6216;51.146;7.008;2022-07-06T07:20:10;18.80;99.90
12307;DHT22;6216;51.146;7.008;2022-07-06T07:22:38;18.90;99.90
12307;DHT22;6216;51.146;7.008;2022-07-06T07:25:07;18.90;99.90
12307;DHT22;6216;51.146;7.008;2022-07-06T07:27:35;19.00;99.90
12307;DHT22;6216;51.146;7.008;2022-07-06T07:30:03;19.10;99.90
12307;DHT22;6216;51.146;7.008;2022-07-06T07:32:31;19.10;99.90
12307;DHT22;6216;51.146;7.008;2022-07-06T07:35:01;19.20;99.90
12307;DHT22;6216;51.146;7.008;2022-07-06T07:37:29;19.30;99.90
12307;DHT22;6216;51.146;7.008;2022-07-06T07:39:57;19.30;99.90
12307;DHT22;6216;51.146;7.008;2022-07-06T07:42:25;19.40;99.90
12307;DHT22;6216;51.146;7.008;2022-07-06T07:44:53;19.50;99.90
12307;DHT22;6216;51.146;7.008;2022-07-06T07:47:21;19.60;99.90
12307;DHT22;6216;51.146;7.008;2022-07-06T07:49:49;19.70;99.90
12307;DHT22;6216;51.146;7.008;2022-07-06T07:52:18;19.60;99.90
12307;DHT22;6216;51.146;7.008;2022-07-06T07:54:47;19.60;99.90
12307;DHT22;6216;51.146;7.008;2022-07-06T07:57:35;19.50;99.90
12307;DHT22;6216;51.146;7.008;2022-07-06T08:00:04;19.50;99.90
12307;DHT22;6216;51.146;7.008;2022-07-06T08:02:32;19.40;99.90
12307;DHT22;6216;51.146;7.008;2022-07-06T08:05:00;19.40;99.90
12307;DHT22;6216;51.146;7.008;2022-07-06T08:07:30;19.30;99.90
12307;DHT22;6216;51.146;7.008;2022-07-06T08:09:58;19.40;99.90
12307;DHT22;6216;51.146;7.008;2022-07-06T08:12:26;19.40;99.70
12307;DHT22;6216;51.146;7.008;2022-07-06T08:14:54;19.40;99.60
12307;DHT22;6216;51.146;7.008;2022-07-06T08:17:22;19.40;99.90
12307;DHT22;6216;51.146;7.008;2022-07-06T08:19:53;19.60;99.70
12307;DHT22;6216;51.146;7.008;2022-07-06T08:22:21;19.70;99.90
12307;DHT22;6216;51.146;7.008;2022-07-06T08:24:50;19.80;99.80
12307;DHT22;6216;51.146;7.008;2022-07-06T08:27:18;19.90;99.40
12307;DHT22;6216;51.146;7.008;2022-07-06T08:29:46;20.10;99.50
12307;DHT22;6216;51.146;7.008;2022-07-06T08:32:14;20.10;98.80
12307;DHT22;6216;51.146;7.008;2022-07-06T08:35:00;20.10;99.30
12307;DHT22;6216;51.146;7.008;2022-07-06T08:37:28;20.10;99.00
12307;DHT22;6216;51.146;7.008;2022-07-06T08:39:57;20.20;98.90
12307;DHT22;6216;51.146;7.008;2022-07-06T08:42:29;20.20;98.00
12307;DHT22;6216;51.146;7.008;2022-07-06T08:44:59;20.20;98.40
12307;DHT22;6216;51.146;7.008;2022-07-06T08:47:28;20.10;97.60
12307;DHT22;6216;51.146;7.008;2022-07-06T08:49:56;20.00;97.20
12307;DHT22;6216;51.146;7.008;2022-07-06T08:52:24;20.00;97.70
12307;DHT22;6216;51.146;7.008;2022-07-06T08:54:52;20.00;98.10
12307;DHT22;6216;51.146;7.008;2022-07-06T08:57:22;20.10;97.80
12307;DHT22;6216;51.146;7.008;2022-07-06T08:59:50;20.20;97.50
12307;DHT22;6216;51.146;7.008;2022-07-06T09:02:18;20.30;97.10
12307;DHT22;6216;51.146;7.008;2022-07-06T09:04:47;20.40;97.30
12307;DHT22;6216;51.146;7.008;2022-07-06T09:07:17;20.50;97.30
12307;DHT22;6216;51.146;7.008;2022-07-06T09:10:07;20.60;97.10
12307;DHT22;6216;51.146;7.008;2022-07-06T09:12:37;20.70;95.60
12307;DHT22;6216;51.146;7.008;2022-07-06T09:15:05;20.70;95.10
12307;DHT22;6216;51.146;7.008;2022-07-06T09:17:37;20.70;95.60
12307;DHT22;6216;51.146;7.008;2022-07-06T09:20:07;20.70;95.00
12307;DHT22;6216;51.146;7.008;2022-07-06T09:22:36;20.70;95.20
12307;DHT22;6216;51.146;7.008;2022-07-06T09:25:05;20.80;95.90
12307;DHT22;6216;51.146;7.008;2022-07-06T09:27:38;20.90;95.60
12307;DHT22;6216;51.146;7.008;2022-07-06T09:30:11;21.00;95.30
12307;DHT22;6216;51.146;7.008;2022-07-06T09:32:39;21.10;95.30
12307;DHT22;6216;51.146;7.008;2022-07-06T09:35:21;21.20;94.70
12307;DHT22;6216;51.146;7.008;2022-07-06T09:38:03;21.40;94.60
12307;DHT22;6216;51.146;7.008;2022-07-06T09:40:32;21.40;93.30
12307;DHT22;6216;51.146;7.008;2022-07-06T09:43:09;21.60;91.70
12307;DHT22;6216;51.146;7.008;2022-07-06T09:45:39;21.70;91.30
12307;DHT22;6216;51.146;7.008;2022-07-06T09:48:09;21.60;90.90
12307;DHT22;6216;51.146;7.008;2022-07-06T09:50:41;21.60;90.90
12307;DHT22;6216;51.146;7.008;2022-07-06T09:53:10;21.50;90.90
12307;DHT22;6216;51.146;7.008;2022-07-06T09:55:52;21.50;91.20
12307;DHT22;6216;51.146;7.008;2022-07-06T09:58:26;21.50;90.90
12307;DHT22;6216;51.146;7.008;2022-07-06T10:01:25;21.50;90.80
12307;DHT22;6216;51.146;7.008;2022-07-06T10:03:54;21.50;91.20
12307;DHT22;6216;51.146;7.008;2022-07-06T10:06:23;21.60;91.40
12307;DHT22;6216;51.146;7.008;2022-07-06T10:08:53;21.70;91.20
12307;DHT22;6216;51.146;7.008;2022-07-06T10:11:23;21.80;91.60
12307;DHT22;6216;51.146;7.008;2022-07-06T10:13:54;22.00;91.10
12307;DHT22;6216;51.146;7.008;2022-07-06T10:16:23;22.00;91.10
12307;DHT22;6216;51.146;7.008;2022-07-06T10:18:52;22.10;91.00
12307;DHT22;6216;51.146;7.008;2022-07-06T10:21:22;22.30;90.90
12307;DHT22;6216;51.146;7.008;2022-07-06T10:23:51;22.40;90.90
12307;DHT22;6216;51.146;7.008;2022-07-06T10:26:23;22.50;90.50
12307;DHT22;6216;51.146;7.008;2022-07-06T10:28:56;22.60;90.30
12307;DHT22;6216;51.146;7.008;2022-07-06T10:31:34;22.40;89.70
12307;DHT22;6216;51.146;7.008;2022-07-06T10:34:05;22.20;89.50
12307;DHT22;6216;51.146;7.008;2022-07-06T10:36:37;22.10;89.80
12307;DHT22;6216;51.146;7.008;2022-07-06T10:39:10;22.00;89.60
12307;DHT22;6216;51.146;7.008;2022-07-06T10:41:57;22.10;90.30
12307;DHT22;6216;51.146;7.008;2022-07-06T10:44:27;22.10;90.40
12307;DHT22;6216;51.146;7.008;2022-07-06T10:46:58;22.30;90.40
12307;DHT22;6216;51.146;7.008;2022-07-06T10:49:27;22.40;90.50
12307;DHT22;6216;51.146;7.008;2022-07-06T10:52:16;22.60;90.20
12307;DHT22;6216;51.146;7.008;2022-07-06T10:54:46;22.40;90.10
12307;DHT22;6216;51.146;7.008;2022-07-06T10:57:14;22.40;90.10
12307;DHT22;6216;51.146;7.008;2022-07-06T11:00:00;22.20;90.30
12307;DHT22;6216;51.146;7.008;2022-07-06T11:02:38;22.10;90.80
12307;DHT22;6216;51.146;7.008;2022-07-06T11:05:10;22.40;91.40
12307;DHT22;6216;51.146;7.008;2022-07-06T11:07:49;22.60;91.40
12307;DHT22;6216;51.146;7.008;2022-07-06T11:10:17;22.70;90.90
12307;DHT22;6216;51.146;7.008;2022-07-06T11:12:45;23.00;90.50
12307;DHT22;6216;51.146;7.008;2022-07-06T11:15:48;23.00;88.40
12307;DHT22;6216;51.146;7.008;2022-07-06T11:18:19;23.00;87.40
12307;DHT22;6216;51.146;7.008;2022-07-06T11:23:59;23.30;88.60
12307;DHT22;6216;51.146;7.008;2022-07-06T11:26:27;23.50;88.50
12307;DHT22;6216;51.146;7.008;2022-07-06T11:29:04;23.60;88.20
12307;DHT22;6216;51.146;7.008;2022-07-06T11:31:36;23.70;87.30
12307;DHT22;6216;51.146;7.008;2022-07-06T11:34:05;23.90;87.20
12307;DHT22;6216;51.146;7.008;2022-07-06T11:36:34;24.10;87.90
12307;DHT22;6216;51.146;7.008;2022-07-06T11:39:10;24.30;87.70
12307;DHT22;6216;51.146;7.008;2022-07-06T11:41:38;24.40;85.90
12307;DHT22;6216;51.146;7.008;2022-07-06T11:44:12;24.50;84.20
12307;DHT22;6216;51.146;7.008;2022-07-06T11:46:41;24.50;84.30
12307;DHT22;6216;51.146;7.008;2022-07-06T11:49:09;24.30;84.10
12307;DHT22;6216;51.146;7.008;2022-07-06T11:51:39;24.30;82.70
12307;DHT22;6216;51.146;7.008;2022-07-06T11:54:11;24.20;83.70
12307;DHT22;6216;51.146;7.008;2022-07-06T11:56:46;24.30;83.90
12307;DHT22;6216;51.146;7.008;2022-07-06T11:59:15;24.20;84.50
12307;DHT22;6216;51.146;7.008;2022-07-06T12:01:44;24.20;84.80
12307;DHT22;6216;51.146;7.008;2022-07-06T12:04:12;24.30;85.00
12307;DHT22;6216;51.146;7.008;2022-07-06T12:06:43;24.40;84.80
12307;DHT22;6216;51.146;7.008;2022-07-06T12:09:11;24.70;83.10
12307;DHT22;6216;51.146;7.008;2022-07-06T12:11:44;24.70;83.10
12307;DHT22;6216;51.146;7.008;2022-07-06T12:14:14;24.90;82.50
12307;DHT22;6216;51.146;7.008;2022-07-06T12:16:42;25.10;82.60
12307;DHT22;6216;51.146;7.008;2022-07-06T12:19:12;25.20;81.90
12307;DHT22;6216;51.146;7.008;2022-07-06T12:21:45;25.10;79.90
12307;DHT22;6216;51.146;7.008;2022-07-06T12:24:18;24.70;79.50
12307;DHT22;6216;51.146;7.008;2022-07-06T12:26:47;24.60;80.80
12307;DHT22;6216;51.146;7.008;2022-07-06T12:29:16;24.50;81.20
12307;DHT22;6216;51.146;7.008;2022-07-06T12:31:49;24.50;81.70
12307;DHT22;6216;51.146;7.008;2022-07-06T12:34:21;24.50;80.40
12307;DHT22;6216;51.146;7.008;2022-07-06T12:36:51;24.30;79.20
12307;DHT22;6216;51.146;7.008;2022-07-06T12:39:20;23.90;80.50
12307;DHT22;6216;51.146;7.008;2022-07-06T12:41:50;23.90;82.20
12307;DHT22;6216;51.146;7.008;2022-07-06T12:44:20;23.90;83.10
12307;DHT22;6216;51.146;7.008;2022-07-06T12:46:49;23.90;83.10
12307;DHT22;6216;51.146;7.008;2022-07-06T12:49:21;23.90;81.60
12307;DHT22;6216;51.146;7.008;2022-07-06T12:51:58;23.90;81.40
12307;DHT22;6216;51.146;7.008;2022-07-06T12:54:29;23.90;82.40
12307;DHT22;6216;51.146;7.008;2022-07-06T12:57:05;24.00;82.10
12307;DHT22;6216;51.146;7.008;2022-07-06T12:59:38;24.00;80.60
12307;DHT22;6216;51.146;7.008;2022-07-06T13:02:07;23.90;80.50
12307;DHT22;6216;51.146;7.008;2022-07-06T13:04:37;23.80;81.40
12307;DHT22;6216;51.146;7.008;2022-07-06T13:07:05;23.80;82.50
12307;DHT22;6216;51.146;7.008;2022-07-06T13:09:34;23.90;82.30
12307;DHT22;6216;51.146;7.008;2022-07-06T13:12:03;24.10;82.70
12307;DHT22;6216;51.146;7.008;2022-07-06T13:14:31;24.20;83.30
12307;DHT22;6216;51.146;7.008;2022-07-06T13:16:59;24.20;83.20
12307;DHT22;6216;51.146;7.008;2022-07-06T13:19:28;24.20;80.80
12307;DHT22;6216;51.146;7.008;2022-07-06T13:21:57;24.20;81.60
12307;DHT22;6216;51.146;7.008;2022-07-06T13:24:25;24.30;82.40
12307;DHT22;6216;51.146;7.008;2022-07-06T13:26:55;24.40;83.00
12307;DHT22;6216;51.146;7.008;2022-07-06T13:29:23;24.50;82.40
12307;DHT22;6216;51.146;7.008;2022-07-06T13:31:51;24.50;81.40
12307;DHT22;6216;51.146;7.008;2022-07-06T13:34:19;24.60;81.40
12307;DHT22;6216;51.146;7.008;2022-07-06T13:36:47;24.50;80.80
12307;DHT22;6216;51.146;7.008;2022-07-06T13:39:16;24.50;81.70
12307;DHT22;6216;51.146;7.008;2022-07-06T13:41:44;24.50;81.00
12307;DHT22;6216;51.146;7.008;2022-07-06T13:44:12;24.50;81.90
12307;DHT22;6216;51.146;7.008;2022-07-06T13:46:41;24.60;82.20
12307;DHT22;6216;51.146;7.008;2022-07-06T13:49:09;24.70;81.60
12307;DHT22;6216;51.146;7.008;2022-07-06T13:51:37;24.80;82.00
12307;DHT22;6216;51.146;7.008;2022-07-06T13:54:06;24.90;81.20
12307;DHT22;6216;51.146;7.008;2022-07-06T13:57:01;25.00;82.00
12307;DHT22;6216;51.146;7.008;2022-07-06T13:59:29;25.00;81.90
12307;DHT22;6216;51.146;7.008;2022-07-06T14:01:57;25.10;80.60
12307;DHT22;6216;51.146;7.008;2022-07-06T14:04:27;24.80;79.00
12307;DHT22;6216;51.146;7.008;2022-07-06T14:06:55;24.70;79.80
12307;DHT22;6216;51.146;7.008;2022-07-06T14:09:23;24.60;79.00
12307;DHT22;6216;51.146;7.008;2022-07-06T14:11:52;24.50;79.70
12307;DHT22;6216;51.146;7.008;2022-07-06T14:14:20;24.60;80.90
12307;DHT22;6216;51.146;7.008;2022-07-06T14:16:50;24.60;80.60
12307;DHT22;6216;51.146;7.008;2022-07-06T14:19:18;24.60;81.50
12307;DHT22;6216;51.146;7.008;2022-07-06T14:21:47;24.60;80.90
12307;DHT22;6216;51.146;7.008;2022-07-06T14:24:15;24.70;81.40
12307;DHT22;6216;51.146;7.008;2022-07-06T14:26:43;24.70;81.20
12307;DHT22;6216;51.146;7.008;2022-07-06T14:29:12;24.70;81.20
12307;DHT22;6216;51.146;7.008;2022-07-06T14:31:40;24.90;81.20
12307;DHT22;6216;51.146;7.008;2022-07-06T14:34:08;24.80;81.50
12307;DHT22;6216;51.146;7.008;2022-07-06T14:36:36;24.90;80.30
12307;DHT22;6216;51.146;7.008;2022-07-06T14:39:05;24.90;79.80
12307;DHT22;6216;51.146;7.008;2022-07-06T14:41:33;24.90;81.30
12307;DHT22;6216;51.146;7.008;2022-07-06T14:44:02;25.00;80.20
12307;DHT22;6216;51.146;7.008;2022-07-06T14:46:31;25.00;79.90
12307;DHT22;6216;51.146;7.008;2022-07-06T14:49:01;24.70;78.70
12307;DHT22;6216;51.146;7.008;2022-07-06T14:51:34;24.60;80.20
12307;DHT22;6216;51.146;7.008;2022-07-06T14:54:02;24.50;80.20
12307;DHT22;6216;51.146;7.008;2022-07-06T14:56:30;24.50;80.60
12307;DHT22;6216;51.146;7.008;2022-07-06T14:59:11;24.50;81.20
12307;DHT22;6216;51.146;7.008;2022-07-06T15:01:55;24.50;80.60
12307;DHT22;6216;51.146;7.008;2022-07-06T15:04:24;24.50;79.90
12307;DHT22;6216;51.146;7.008;2022-07-06T15:06:53;24.50;79.50
12307;DHT22;6216;51.146;7.008;2022-07-06T15:09:22;24.60;79.50
12307;DHT22;6216;51.146;7.008;2022-07-06T15:11:51;24.40;79.50
12307;DHT22;6216;51.146;7.008;2022-07-06T15:14:19;24.30;80.00
12307;DHT22;6216;51.146;7.008;2022-07-06T15:16:47;24.20;80.60
12307;DHT22;6216;51.146;7.008;2022-07-06T15:19:17;24.30;81.20
12307;DHT22;6216;51.146;7.008;2022-07-06T15:21:45;24.40;81.30
12307;DHT22;6216;51.146;7.008;2022-07-06T15:24:13;24.40;81.20
12307;DHT22;6216;51.146;7.008;2022-07-06T15:26:41;24.40;81.00
12307;DHT22;6216;51.146;7.008;2022-07-06T15:29:09;24.30;80.50
12307;DHT22;6216;51.146;7.008;2022-07-06T15:31:37;24.00;80.10
12307;DHT22;6216;51.146;7.008;2022-07-06T15:34:05;23.90;81.20
12307;DHT22;6216;51.146;7.008;2022-07-06T15:36:34;24.00;82.20
12307;DHT22;6216;51.146;7.008;2022-07-06T15:39:03;24.10;84.60
12307;DHT22;6216;51.146;7.008;2022-07-06T15:41:31;24.10;81.30
12307;DHT22;6216;51.146;7.008;2022-07-06T15:43:59;24.10;81.00
12307;DHT22;6216;51.146;7.008;2022-07-06T15:46:27;24.10;80.90
12307;DHT22;6216;51.146;7.008;2022-07-06T15:48:56;24.10;81.00
12307;DHT22;6216;51.146;7.008;2022-07-06T15:51:24;24.10;82.20
12307;DHT22;6216;51.146;7.008;2022-07-06T15:53:55;24.10;82.40
12307;DHT22;6216;51.146;7.008;2022-07-06T15:56:23;24.10;81.70
12307;DHT22;6216;51.146;7.008;2022-07-06T15:58:51;24.00;81.70
12307;DHT22;6216;51.146;7.008;2022-07-06T16:01:19;23.90;82.10
12307;DHT22;6216;51.146;7.008;2022-07-06T16:03:47;23.90;82.80